createdAt,value
2017-10-31T00:00:16.470Z,0
2017-10-31T00:01:26.477Z,0
2017-10-31T00:02:36.253Z,0
2017-10-31T00:03:45.956Z,0
2017-10-31T00:04:55.636Z,0
2017-10-31T00:06:04.979Z,0
2017-10-31T00:07:14.379Z,0
2017-10-31T00:08:24.065Z,0
2017-10-31T00:09:34.418Z,0
2017-10-31T00:10:44.091Z,0
2017-10-31T00:11:54.439Z,0
2017-10-31T00:13:04.796Z,0
2017-10-31T00:14:14.474Z,0
2017-10-31T00:15:24.160Z,0
2017-10-31T00:16:33.507Z,0
2017-10-31T00:17:43.565Z,0
2017-10-31T00:18:53.244Z,0
2017-10-31T00:20:03.262Z,0
2017-10-31T00:21:13.278Z,0
2017-10-31T00:22:22.626Z,0
2017-10-31T00:23:31.293Z,0
2017-10-31T00:24:40.647Z,0
2017-10-31T00:25:50.678Z,0
2017-10-31T00:27:00.364Z,0
2017-10-31T00:28:09.372Z,0
2017-10-31T00:29:19.387Z,0
2017-10-31T00:30:29.747Z,0
2017-10-31T00:31:39.761Z,0
2017-10-31T00:32:49.765Z,0
2017-10-31T00:33:59.107Z,0
2017-10-31T00:35:09.129Z,0
2017-10-31T00:36:18.485Z,0
2017-10-31T00:37:28.157Z,0
2017-10-31T00:38:38.173Z,0
2017-10-31T00:39:47.843Z,0
2017-10-31T00:40:57.870Z,0
2017-10-31T00:42:07.550Z,0
2017-10-31T00:43:17.553Z,0
2017-10-31T00:44:26.913Z,0
2017-10-31T00:45:36.253Z,0
2017-10-31T00:46:45.789Z,0
2017-10-31T00:47:56.280Z,0
2017-10-31T00:49:06.287Z,0
2017-10-31T00:50:15.770Z,0
2017-10-31T00:51:26.314Z,0
2017-10-31T00:52:36.334Z,0
2017-10-31T00:53:46.233Z,0
2017-10-31T00:54:56.083Z,0
2017-10-31T00:56:06.274Z,0
2017-10-31T00:57:15.614Z,0
2017-10-31T00:58:25.096Z,0
2017-10-31T00:59:34.573Z,0
2017-10-31T01:00:44.719Z,0
2017-10-31T01:01:54.732Z,0
2017-10-31T01:03:04.574Z,0
2017-10-31T01:04:14.000Z,0
2017-10-31T01:05:24.018Z,0
2017-10-31T01:06:33.781Z,0
2017-10-31T01:07:43.612Z,0
2017-10-31T01:08:53.112Z,0
2017-10-31T01:10:03.454Z,0
2017-10-31T01:11:13.291Z,0
2017-10-31T01:12:23.390Z,0
2017-10-31T01:13:33.547Z,0
2017-10-31T01:14:43.885Z,0
2017-10-31T01:15:54.055Z,0
2017-10-31T01:17:03.903Z,0
2017-10-31T01:18:14.013Z,0
2017-10-31T01:19:23.701Z,0
2017-10-31T01:20:33.890Z,0
2017-10-31T01:21:43.751Z,0
2017-10-31T01:22:54.088Z,0
2017-10-31T01:24:04.558Z,0
2017-10-31T01:25:15.040Z,0
2017-10-31T01:26:24.552Z,0
2017-10-31T01:27:34.571Z,0
2017-10-31T01:28:43.741Z,0
2017-10-31T01:29:53.918Z,0
2017-10-31T01:31:03.927Z,0
2017-10-31T01:32:14.415Z,0
2017-10-31T01:33:24.594Z,0
2017-10-31T01:34:34.392Z,0
2017-10-31T01:35:44.410Z,0
2017-10-31T01:36:53.927Z,0
2017-10-31T01:38:04.088Z,0
2017-10-31T01:39:14.114Z,0
2017-10-31T01:40:24.572Z,0
2017-10-31T01:41:34.916Z,0
2017-10-31T01:42:45.271Z,0
2017-10-31T01:43:55.308Z,0
2017-10-31T01:45:05.317Z,0
2017-10-31T01:46:15.673Z,0
2017-10-31T01:47:25.144Z,0
2017-10-31T01:48:34.814Z,0
2017-10-31T01:49:44.484Z,0
2017-10-31T01:50:54.160Z,0
2017-10-31T01:52:03.844Z,0
2017-10-31T01:53:14.340Z,0
2017-10-31T01:54:24.589Z,0
2017-10-31T01:55:34.265Z,0
2017-10-31T01:56:43.269Z,0
2017-10-31T01:57:53.272Z,0
2017-10-31T01:59:02.961Z,0
2017-10-31T02:00:12.619Z,0
2017-10-31T02:01:22.630Z,0
2017-10-31T02:02:31.644Z,0
2017-10-31T02:03:41.988Z,0
2017-10-31T02:04:52.002Z,0
2017-10-31T02:06:02.010Z,0
2017-10-31T02:07:12.024Z,0
2017-10-31T02:08:22.030Z,0
2017-10-31T02:09:31.702Z,0
2017-10-31T02:10:41.040Z,0
2017-10-31T02:11:51.047Z,0
2017-10-31T02:13:00.388Z,0
2017-10-31T02:14:09.737Z,0
2017-10-31T02:15:19.410Z,0
2017-10-31T02:16:29.432Z,0
2017-10-31T02:17:39.123Z,0
2017-10-31T02:18:49.475Z,0
2017-10-31T02:19:59.154Z,0
2017-10-31T02:21:08.491Z,0
2017-10-31T02:22:18.172Z,0
2017-10-31T02:23:28.184Z,0
2017-10-31T02:24:37.519Z,0
2017-10-31T02:25:47.203Z,0
2017-10-31T02:26:56.876Z,0
2017-10-31T02:28:06.881Z,0
2017-10-31T02:29:16.895Z,0
2017-10-31T02:30:26.903Z,0
2017-10-31T02:31:36.917Z,0
2017-10-31T02:32:46.606Z,0
2017-10-31T02:33:56.961Z,0
2017-10-31T02:35:06.968Z,0
2017-10-31T02:36:16.978Z,0
2017-10-31T02:37:26.995Z,0
2017-10-31T02:38:36.664Z,0
2017-10-31T02:39:46.680Z,0
2017-10-31T02:42:26.195Z,0
2017-10-31T02:43:35.873Z,0
2017-10-31T02:44:45.549Z,0
2017-10-31T02:45:55.226Z,0
2017-10-31T02:47:05.234Z,0
2017-10-31T02:48:14.943Z,0
2017-10-31T02:49:25.006Z,0
2017-10-31T02:50:34.695Z,0
2017-10-31T02:51:44.708Z,0
2017-10-31T02:52:54.763Z,0
2017-10-31T02:54:04.472Z,0
2017-10-31T02:55:14.157Z,0
2017-10-31T02:56:23.832Z,0
2017-10-31T02:57:34.183Z,0
2017-10-31T02:58:44.205Z,0
2017-10-31T02:59:54.215Z,0
2017-10-31T03:01:03.890Z,0
2017-10-31T03:02:13.572Z,0
2017-10-31T03:03:22.908Z,0
2017-10-31T03:04:32.924Z,0
2017-10-31T03:05:41.934Z,0
2017-10-31T03:06:51.273Z,0
2017-10-31T03:08:00.945Z,0
2017-10-31T03:09:10.969Z,0
2017-10-31T03:10:20.638Z,0
2017-10-31T03:11:30.653Z,0
2017-10-31T03:12:40.655Z,0
2017-10-31T03:13:51.003Z,0
2017-10-31T03:15:01.342Z,0
2017-10-31T03:16:11.014Z,0
2017-10-31T03:17:21.027Z,0
2017-10-31T03:18:31.389Z,0
2017-10-31T03:19:41.065Z,0
2017-10-31T03:20:50.761Z,0
2017-10-31T03:22:00.107Z,0
2017-10-31T03:23:10.155Z,0
2017-10-31T03:24:20.175Z,0
2017-10-31T03:25:29.857Z,0
2017-10-31T03:26:39.545Z,0
2017-10-31T03:27:49.890Z,0
2017-10-31T03:28:59.224Z,0
2017-10-31T03:30:09.259Z,0
2017-10-31T03:31:18.597Z,0
2017-10-31T03:32:28.938Z,0
2017-10-31T03:33:38.953Z,0
2017-10-31T03:34:48.625Z,0
2017-10-31T03:35:58.305Z,0
2017-10-31T03:37:07.989Z,0
2017-10-31T03:38:18.015Z,0
2017-10-31T03:39:28.048Z,0
2017-10-31T03:40:38.113Z,0
2017-10-31T03:41:47.461Z,0
2017-10-31T03:42:57.482Z,0
2017-10-31T03:44:07.823Z,0
2017-10-31T03:45:17.858Z,0
2017-10-31T03:46:27.868Z,0
2017-10-31T03:47:38.227Z,0
2017-10-31T03:48:47.567Z,0
2017-10-31T03:49:57.578Z,0
2017-10-31T03:51:07.590Z,0
2017-10-31T03:52:17.933Z,0
2017-10-31T03:53:27.956Z,0
2017-10-31T03:54:37.966Z,0
2017-10-31T03:55:47.637Z,0
2017-10-31T03:56:57.981Z,0
2017-10-31T03:58:07.998Z,0
2017-10-31T03:59:17.671Z,0
2017-10-31T04:00:27.366Z,0
2017-10-31T04:01:37.719Z,0
2017-10-31T04:02:47.423Z,0
2017-10-31T04:03:57.760Z,0
2017-10-31T04:05:07.771Z,0
2017-10-31T04:06:17.777Z,0
2017-10-31T04:07:27.790Z,0
2017-10-31T04:08:37.456Z,0
2017-10-31T04:09:47.482Z,0
2017-10-31T04:10:57.223Z,0
2017-10-31T04:12:06.894Z,0
2017-10-31T04:13:16.564Z,0
2017-10-31T04:14:26.956Z,0
2017-10-31T04:15:36.981Z,0
2017-10-31T04:16:47.007Z,0
2017-10-31T04:17:57.019Z,0
2017-10-31T04:19:06.713Z,0
2017-10-31T04:20:15.722Z,0
2017-10-31T04:21:25.392Z,0
2017-10-31T04:22:35.083Z,0
2017-10-31T04:23:44.426Z,0
2017-10-31T04:24:53.447Z,0
2017-10-31T04:26:02.780Z,0
2017-10-31T04:27:12.793Z,0
2017-10-31T04:28:22.132Z,0
2017-10-31T04:29:31.883Z,0
2017-10-31T04:30:41.565Z,0
2017-10-31T04:31:50.900Z,0
2017-10-31T04:33:00.576Z,0
2017-10-31T04:34:10.255Z,0
2017-10-31T04:35:19.925Z,0
2017-10-31T04:36:30.278Z,0
2017-10-31T04:37:39.957Z,0
2017-10-31T04:38:49.629Z,0
2017-10-31T04:39:59.301Z,0
2017-10-31T04:41:09.661Z,0
2017-10-31T04:42:19.997Z,0
2017-10-31T04:43:30.044Z,0
2017-10-31T04:44:40.399Z,0
2017-10-31T04:45:50.106Z,0
2017-10-31T04:47:00.122Z,0
2017-10-31T04:48:09.797Z,0
2017-10-31T04:49:19.466Z,0
2017-10-31T04:50:29.821Z,0
2017-10-31T04:51:39.498Z,0
2017-10-31T04:52:49.530Z,0
2017-10-31T04:53:59.235Z,0
2017-10-31T04:55:09.239Z,0
2017-10-31T04:56:19.588Z,0
2017-10-31T04:57:29.936Z,0
2017-10-31T04:58:39.610Z,0
2017-10-31T04:59:49.285Z,0
2017-10-31T05:00:59.655Z,0
2017-10-31T05:02:09.326Z,0
2017-10-31T05:03:18.666Z,0
2017-10-31T05:04:29.006Z,0
2017-10-31T05:05:38.377Z,0
2017-10-31T05:06:47.708Z,0
2017-10-31T05:07:57.749Z,0
2017-10-31T05:09:07.768Z,0
2017-10-31T05:10:17.447Z,0
2017-10-31T05:11:27.116Z,0
2017-10-31T05:12:36.813Z,0
2017-10-31T05:13:46.488Z,0
2017-10-31T05:14:56.233Z,0
2017-10-31T05:16:06.267Z,0
2017-10-31T05:17:16.614Z,0
2017-10-31T05:18:26.964Z,0
2017-10-31T05:19:36.984Z,0
2017-10-31T05:20:47.325Z,0
2017-10-31T05:21:57.689Z,0
2017-10-31T05:23:08.048Z,0
2017-10-31T05:24:17.392Z,0
2017-10-31T05:25:27.735Z,0
2017-10-31T05:26:37.410Z,0
2017-10-31T05:27:47.434Z,0
2017-10-31T05:28:57.106Z,0
2017-10-31T05:30:07.117Z,0
2017-10-31T05:31:17.140Z,0
2017-10-31T05:32:26.824Z,0
2017-10-31T05:33:35.489Z,0
2017-10-31T05:34:44.493Z,0
2017-10-31T05:35:53.820Z,0
2017-10-31T05:37:03.541Z,0
2017-10-31T05:38:13.567Z,0
2017-10-31T05:39:22.905Z,0
2017-10-31T05:40:32.244Z,0
2017-10-31T05:41:42.268Z,0
2017-10-31T05:42:52.295Z,0
2017-10-31T05:44:01.638Z,0
2017-10-31T05:45:11.360Z,0
2017-10-31T05:46:21.081Z,0
2017-10-31T05:47:30.758Z,0
2017-10-31T05:48:40.427Z,0
2017-10-31T05:49:50.105Z,0
2017-10-31T05:51:00.172Z,0
2017-10-31T05:52:09.842Z,0
2017-10-31T05:53:19.527Z,0
2017-10-31T05:54:29.209Z,0
2017-10-31T05:55:38.274Z,0
2017-10-31T05:56:47.629Z,0
2017-10-31T05:57:57.315Z,0
2017-10-31T05:59:07.328Z,0
2017-10-31T06:00:16.665Z,0
2017-10-31T06:01:26.751Z,0
2017-10-31T06:02:37.088Z,0
2017-10-31T06:03:46.764Z,0
2017-10-31T06:04:56.469Z,0
2017-10-31T06:06:06.183Z,0
2017-10-31T06:07:15.516Z,0
2017-10-31T06:08:25.532Z,0
2017-10-31T06:09:34.536Z,0
2017-10-31T06:10:43.873Z,0
2017-10-31T06:11:54.222Z,0
2017-10-31T06:13:04.256Z,0
2017-10-31T06:14:14.285Z,0
2017-10-31T06:15:24.290Z,0
2017-10-31T06:16:33.293Z,0
2017-10-31T06:17:43.298Z,0
2017-10-31T06:18:53.303Z,0
2017-10-31T06:20:02.972Z,0
2017-10-31T06:21:12.977Z,0
2017-10-31T06:22:22.654Z,0
2017-10-31T06:23:32.682Z,0
2017-10-31T06:24:42.683Z,0
2017-10-31T06:25:52.359Z,0
2017-10-31T06:27:02.361Z,0
2017-10-31T06:28:11.698Z,0
2017-10-31T06:29:21.702Z,0
2017-10-31T06:30:32.062Z,0
2017-10-31T06:31:42.122Z,0
2017-10-31T06:32:52.130Z,0
2017-10-31T06:34:02.478Z,0
2017-10-31T06:35:12.502Z,0
2017-10-31T06:36:22.194Z,0
2017-10-31T06:37:32.202Z,0
2017-10-31T06:38:41.211Z,5
2017-10-31T06:39:51.227Z,5
2017-10-31T06:41:01.260Z,5
2017-10-31T06:42:10.935Z,5
2017-10-31T06:43:21.012Z,5
2017-10-31T06:44:30.695Z,5
2017-10-31T06:45:40.388Z,5
2017-10-31T06:46:49.736Z,5
2017-10-31T06:47:59.410Z,5
2017-10-31T06:49:09.083Z,10
2017-10-31T06:50:19.089Z,10
2017-10-31T06:51:29.090Z,10
2017-10-31T06:52:39.097Z,10
2017-10-31T06:53:48.773Z,15
2017-10-31T06:54:59.114Z,15
2017-10-31T06:56:09.464Z,15
2017-10-31T06:57:19.483Z,15
2017-10-31T06:58:29.175Z,15
2017-10-31T06:59:38.492Z,15
2017-10-31T07:00:48.528Z,15
2017-10-31T07:01:57.864Z,15
2017-10-31T07:03:07.875Z,15
2017-10-31T07:04:17.892Z,20
2017-10-31T07:05:27.918Z,20
2017-10-31T07:06:37.615Z,20
2017-10-31T07:07:47.287Z,20
2017-10-31T07:08:57.633Z,25
2017-10-31T07:10:07.299Z,25
2017-10-31T07:11:16.977Z,25
2017-10-31T07:12:26.314Z,25
2017-10-31T07:13:36.333Z,25
2017-10-31T07:14:46.348Z,25
2017-10-31T07:15:56.352Z,30
2017-10-31T07:17:06.391Z,30
2017-10-31T07:18:16.435Z,30
2017-10-31T07:19:25.429Z,35
2017-10-31T07:20:35.440Z,35
2017-10-31T07:21:45.111Z,35
2017-10-31T07:22:55.161Z,30
2017-10-31T07:24:04.972Z,30
2017-10-31T07:25:15.224Z,30
2017-10-31T07:26:25.577Z,30
2017-10-31T07:27:35.504Z,25
2017-10-31T07:28:45.529Z,25
2017-10-31T07:29:55.881Z,25
2017-10-31T07:31:05.565Z,25
2017-10-31T07:32:15.774Z,20
2017-10-31T07:33:25.347Z,20
2017-10-31T07:34:35.618Z,20
2017-10-31T07:35:46.190Z,20
2017-10-31T07:36:56.209Z,20
2017-10-31T07:38:06.553Z,20
2017-10-31T07:39:16.230Z,20
2017-10-31T07:40:25.928Z,20
2017-10-31T07:41:35.266Z,25
2017-10-31T07:42:44.601Z,25
2017-10-31T07:43:54.609Z,25
2017-10-31T07:45:04.621Z,25
2017-10-31T07:46:14.306Z,25
2017-10-31T07:47:24.333Z,30
2017-10-31T07:48:34.740Z,30
2017-10-31T07:49:44.085Z,30
2017-10-31T07:50:53.980Z,25
2017-10-31T07:52:04.334Z,25
2017-10-31T07:53:14.357Z,20
2017-10-31T07:54:23.483Z,20
2017-10-31T07:55:33.489Z,20
2017-10-31T07:56:43.504Z,20
2017-10-31T07:57:53.195Z,25
2017-10-31T07:59:02.929Z,25
2017-10-31T08:00:12.933Z,35
2017-10-31T08:01:22.625Z,40
2017-10-31T08:02:32.635Z,45
2017-10-31T08:03:43.029Z,50
2017-10-31T08:04:52.731Z,50
2017-10-31T08:06:02.747Z,50
2017-10-31T08:07:13.095Z,50
2017-10-31T08:08:23.104Z,50
2017-10-31T08:09:33.135Z,50
2017-10-31T08:10:42.146Z,50
2017-10-31T08:11:52.007Z,55
2017-10-31T08:13:02.490Z,55
2017-10-31T08:14:13.190Z,55
2017-10-31T08:15:23.436Z,55
2017-10-31T08:16:33.096Z,50
2017-10-31T08:17:43.149Z,50
2017-10-31T08:18:52.663Z,45
2017-10-31T08:20:02.944Z,45
2017-10-31T08:21:13.317Z,45
2017-10-31T08:22:23.579Z,40
2017-10-31T08:23:34.080Z,40
2017-10-31T08:24:44.325Z,40
2017-10-31T08:25:53.858Z,40
2017-10-31T08:27:03.864Z,40
2017-10-31T08:28:14.074Z,35
2017-10-31T08:29:24.311Z,35
2017-10-31T08:30:34.000Z,30
2017-10-31T08:31:43.560Z,30
2017-10-31T08:32:53.669Z,25
2017-10-31T08:34:04.035Z,25
2017-10-31T08:35:14.487Z,25
2017-10-31T08:36:24.576Z,25
2017-10-31T08:37:34.257Z,25
2017-10-31T08:38:44.496Z,25
2017-10-31T08:39:55.098Z,20
2017-10-31T08:41:04.437Z,20
2017-10-31T08:42:14.376Z,20
2017-10-31T08:43:24.960Z,20
2017-10-31T08:44:34.636Z,25
2017-10-31T08:45:44.548Z,25
2017-10-31T08:46:54.435Z,25
2017-10-31T08:48:04.443Z,30
2017-10-31T08:49:15.032Z,30
2017-10-31T08:50:25.241Z,30
2017-10-31T08:51:34.244Z,30
2017-10-31T08:52:44.479Z,35
2017-10-31T08:53:55.073Z,35
2017-10-31T08:55:05.092Z,30
2017-10-31T08:56:15.303Z,30
2017-10-31T08:57:25.401Z,30
2017-10-31T08:58:35.754Z,35
2017-10-31T08:59:46.026Z,35
2017-10-31T09:00:56.553Z,35
2017-10-31T09:02:06.902Z,40
2017-10-31T09:03:16.586Z,40
2017-10-31T09:04:26.382Z,45
2017-10-31T09:05:36.571Z,45
2017-10-31T09:06:46.588Z,50
2017-10-31T09:07:56.812Z,55
2017-10-31T09:09:06.349Z,60
2017-10-31T09:10:16.770Z,60
2017-10-31T09:11:26.592Z,60
2017-10-31T09:12:37.147Z,60
2017-10-31T09:13:46.496Z,60
2017-10-31T09:14:57.082Z,65
2017-10-31T09:16:07.648Z,65
2017-10-31T09:17:17.045Z,65
2017-10-31T09:18:27.360Z,65
2017-10-31T09:19:37.914Z,65
2017-10-31T09:20:47.591Z,60
2017-10-31T09:21:57.367Z,60
2017-10-31T09:23:07.582Z,60
2017-10-31T09:24:17.490Z,60
2017-10-31T09:25:27.506Z,60
2017-10-31T09:26:37.727Z,65
2017-10-31T09:27:48.574Z,65
2017-10-31T09:28:57.912Z,65
2017-10-31T09:30:07.850Z,65
2017-10-31T09:31:17.371Z,70
2017-10-31T09:32:27.389Z,70
2017-10-31T09:33:36.636Z,65
2017-10-31T09:34:46.506Z,60
2017-10-31T09:35:56.355Z,60
2017-10-31T09:37:06.036Z,60
2017-10-31T09:38:16.572Z,55
2017-10-31T09:39:26.120Z,55
2017-10-31T09:40:36.127Z,55
2017-10-31T09:41:46.221Z,55
2017-10-31T09:42:56.704Z,55
2017-10-31T09:44:06.725Z,55
2017-10-31T09:45:16.117Z,55
2017-10-31T09:46:25.561Z,55
2017-10-31T09:47:35.669Z,55
2017-10-31T09:48:45.353Z,60
2017-10-31T09:49:55.503Z,60
2017-10-31T09:51:06.058Z,60
2017-10-31T09:52:15.713Z,60
2017-10-31T09:53:26.252Z,60
2017-10-31T09:54:35.962Z,60
2017-10-31T09:55:45.564Z,60
2017-10-31T09:56:55.814Z,60
2017-10-31T09:58:06.381Z,60
2017-10-31T09:59:16.123Z,60
2017-10-31T10:00:26.481Z,60
2017-10-31T10:01:35.657Z,65
2017-10-31T10:02:45.132Z,70
2017-10-31T10:03:54.808Z,75
2017-10-31T10:05:05.104Z,75
2017-10-31T10:06:14.268Z,75
2017-10-31T10:07:24.282Z,75
2017-10-31T10:08:34.466Z,75
2017-10-31T10:09:45.032Z,80
2017-10-31T10:10:55.045Z,80
2017-10-31T10:12:05.296Z,80
2017-10-31T10:13:15.541Z,80
2017-10-31T10:14:25.555Z,80
2017-10-31T10:15:34.895Z,80
2017-10-31T10:16:43.900Z,80
2017-10-31T10:17:53.919Z,75
2017-10-31T10:19:03.937Z,75
2017-10-31T10:20:13.950Z,75
2017-10-31T10:21:23.680Z,75
2017-10-31T10:22:32.687Z,75
2017-10-31T10:23:42.697Z,75
2017-10-31T10:24:52.368Z,75
2017-10-31T10:26:02.712Z,70
2017-10-31T10:27:12.728Z,70
2017-10-31T10:28:22.755Z,75
2017-10-31T10:29:32.765Z,75
2017-10-31T10:30:42.446Z,80
2017-10-31T10:31:52.479Z,85
2017-10-31T10:33:02.162Z,85
2017-10-31T10:34:12.507Z,90
2017-10-31T10:35:22.197Z,90
2017-10-31T10:36:31.871Z,95
2017-10-31T10:37:41.887Z,95
2017-10-31T10:38:51.925Z,95
2017-10-31T10:40:01.606Z,90
2017-10-31T10:41:11.954Z,90
2017-10-31T10:42:21.968Z,85
2017-10-31T10:43:31.306Z,80
2017-10-31T10:44:40.981Z,75
2017-10-31T10:45:51.376Z,75
2017-10-31T10:47:01.386Z,75
2017-10-31T10:48:11.735Z,70
2017-10-31T10:49:22.072Z,70
2017-10-31T10:50:32.085Z,70
2017-10-31T10:51:42.106Z,70
2017-10-31T10:52:51.455Z,70
2017-10-31T10:54:01.188Z,70
2017-10-31T10:55:10.550Z,75
2017-10-31T10:56:20.585Z,75
2017-10-31T10:57:30.269Z,80
2017-10-31T10:58:39.945Z,80
2017-10-31T10:59:49.649Z,85
2017-10-31T11:00:59.663Z,90
2017-10-31T11:02:09.684Z,90
2017-10-31T11:03:19.373Z,85
2017-10-31T11:04:29.049Z,80
2017-10-31T11:05:39.399Z,75
2017-10-31T11:06:49.075Z,70
2017-10-31T11:07:58.750Z,70
2017-10-31T11:09:07.756Z,65
2017-10-31T11:10:17.097Z,65
2017-10-31T11:11:26.453Z,70
2017-10-31T11:12:36.483Z,70
2017-10-31T11:13:46.831Z,75
2017-10-31T11:14:56.838Z,80
2017-10-31T11:16:05.845Z,80
2017-10-31T11:17:15.854Z,85
2017-10-31T11:18:25.198Z,85
2017-10-31T11:19:35.216Z,90
2017-10-31T11:20:44.566Z,90
2017-10-31T11:21:54.914Z,90
2017-10-31T11:23:04.598Z,90
2017-10-31T11:24:14.632Z,90
2017-10-31T11:25:25.015Z,90
2017-10-31T11:26:35.357Z,90
2017-10-31T11:27:45.061Z,90
2017-10-31T11:28:55.101Z,95
2017-10-31T11:30:05.445Z,100
2017-10-31T11:31:15.801Z,100
2017-10-31T11:32:25.830Z,105
2017-10-31T11:33:35.191Z,105
2017-10-31T11:34:45.197Z,110
2017-10-31T11:35:54.605Z,110
2017-10-31T11:37:03.950Z,110
2017-10-31T11:38:14.289Z,110
2017-10-31T11:39:24.315Z,105
2017-10-31T11:40:33.307Z,100
2017-10-31T11:41:43.322Z,95
2017-10-31T11:42:53.357Z,90
2017-10-31T11:44:02.695Z,90
2017-10-31T11:45:13.044Z,85
2017-10-31T11:46:22.734Z,85
2017-10-31T11:47:33.098Z,90
2017-10-31T11:48:42.772Z,90
2017-10-31T11:49:52.802Z,85
2017-10-31T11:51:02.481Z,85
2017-10-31T11:52:12.524Z,90
2017-10-31T11:53:22.550Z,90
2017-10-31T11:54:32.560Z,95
2017-10-31T11:55:42.242Z,95
2017-10-31T11:56:51.987Z,95
2017-10-31T11:58:01.439Z,95
2017-10-31T11:59:11.159Z,95
2017-10-31T12:00:20.868Z,95
2017-10-31T12:01:31.272Z,90
2017-10-31T12:02:41.330Z,90
2017-10-31T12:03:50.889Z,90
2017-10-31T12:05:01.072Z,95
2017-10-31T12:06:10.751Z,90
2017-10-31T12:07:20.812Z,95
2017-10-31T12:08:30.438Z,95
2017-10-31T12:09:40.456Z,90
2017-10-31T12:10:49.469Z,95
2017-10-31T12:11:59.169Z,90
2017-10-31T12:13:08.523Z,95
2017-10-31T12:14:17.875Z,105
2017-10-31T12:15:27.550Z,125
2017-10-31T12:16:37.571Z,130
2017-10-31T12:17:46.913Z,130
2017-10-31T12:18:56.925Z,135
2017-10-31T12:20:05.980Z,120
2017-10-31T12:21:16.537Z,110
2017-10-31T12:22:25.889Z,105
2017-10-31T12:23:35.255Z,100
2017-10-31T12:24:45.267Z,95
2017-10-31T12:25:54.994Z,95
2017-10-31T12:27:04.337Z,95
2017-10-31T12:28:13.351Z,85
2017-10-31T12:29:23.034Z,80
2017-10-31T12:30:33.052Z,70
2017-10-31T12:31:43.412Z,70
2017-10-31T12:32:53.445Z,70
2017-10-31T12:34:03.120Z,65
2017-10-31T12:35:12.128Z,65
2017-10-31T12:36:22.150Z,60
2017-10-31T12:37:32.198Z,65
2017-10-31T12:38:41.888Z,65
2017-10-31T12:39:51.229Z,60
2017-10-31T12:41:00.955Z,70
2017-10-31T12:42:10.657Z,65
2017-10-31T12:43:20.730Z,65
2017-10-31T12:44:30.765Z,60
2017-10-31T12:45:40.468Z,65
2017-10-31T12:46:50.164Z,60
2017-10-31T12:47:59.504Z,55
2017-10-31T12:49:09.190Z,55
2017-10-31T12:50:19.237Z,60
2017-10-31T12:51:28.920Z,60
2017-10-31T12:52:38.935Z,60
2017-10-31T12:53:49.279Z,60
2017-10-31T12:54:58.974Z,55
2017-10-31T12:56:08.652Z,55
2017-10-31T12:57:18.000Z,60
2017-10-31T12:58:27.705Z,55
2017-10-31T12:59:37.379Z,55
2017-10-31T13:00:47.385Z,55
2017-10-31T13:01:57.060Z,60
2017-10-31T13:03:06.781Z,55
2017-10-31T13:04:16.122Z,45
2017-10-31T13:05:26.140Z,50
2017-10-31T13:06:35.830Z,50
2017-10-31T13:07:45.510Z,50
2017-10-31T13:08:54.847Z,50
2017-10-31T13:10:03.850Z,55
2017-10-31T13:11:13.646Z,55
2017-10-31T13:12:24.256Z,60
2017-10-31T13:13:34.827Z,55
2017-10-31T13:14:44.832Z,55
2017-10-31T13:15:54.301Z,55
2017-10-31T13:17:04.094Z,55
2017-10-31T13:18:14.109Z,50
2017-10-31T13:19:23.666Z,55
2017-10-31T13:20:34.233Z,60
2017-10-31T13:21:44.243Z,60
2017-10-31T13:22:54.390Z,60
2017-10-31T13:24:04.100Z,60
2017-10-31T13:25:13.768Z,60
2017-10-31T13:26:23.656Z,60
2017-10-31T13:27:33.472Z,55
2017-10-31T13:28:43.811Z,65
2017-10-31T13:29:53.691Z,65
2017-10-31T13:31:03.509Z,65
2017-10-31T13:32:12.520Z,70
2017-10-31T13:33:22.778Z,70
2017-10-31T13:34:32.998Z,65
2017-10-31T13:35:42.717Z,65
2017-10-31T13:36:53.241Z,60
2017-10-31T13:38:03.094Z,55
2017-10-31T13:39:13.108Z,55
2017-10-31T13:40:23.215Z,55
2017-10-31T13:41:33.287Z,55
2017-10-31T13:42:43.438Z,55
2017-10-31T13:43:53.867Z,55
2017-10-31T13:45:03.578Z,55
2017-10-31T13:46:13.656Z,55
2017-10-31T13:47:23.362Z,50
2017-10-31T13:48:33.462Z,50
2017-10-31T13:49:43.201Z,50
2017-10-31T13:50:53.560Z,50
2017-10-31T13:52:03.986Z,50
2017-10-31T13:53:13.694Z,50
2017-10-31T13:54:23.429Z,50
2017-10-31T13:55:32.769Z,50
2017-10-31T13:56:42.461Z,50
2017-10-31T13:57:52.192Z,50
2017-10-31T13:59:01.583Z,50
2017-10-31T14:00:11.998Z,50
2017-10-31T14:01:21.757Z,45
2017-10-31T14:02:31.790Z,45
2017-10-31T14:03:41.859Z,45
2017-10-31T14:04:51.937Z,40
2017-10-31T14:06:01.635Z,40
2017-10-31T14:07:11.659Z,40
2017-10-31T14:08:22.044Z,40
2017-10-31T14:09:32.103Z,40
2017-10-31T14:10:42.503Z,40
2017-10-31T14:11:52.218Z,40
2017-10-31T14:13:02.660Z,35
2017-10-31T14:14:13.062Z,35
2017-10-31T14:15:22.797Z,35
2017-10-31T14:16:32.536Z,35
2017-10-31T14:17:42.889Z,35
2017-10-31T14:18:52.335Z,35
2017-10-31T14:20:02.112Z,35
2017-10-31T14:21:12.266Z,35
2017-10-31T14:22:22.323Z,35
2017-10-31T14:23:31.795Z,35
2017-10-31T14:24:42.218Z,35
2017-10-31T14:25:51.948Z,35
2017-10-31T14:27:02.021Z,35
2017-10-31T14:28:12.372Z,35
2017-10-31T14:29:22.148Z,35
2017-10-31T14:30:32.249Z,35
2017-10-31T14:31:42.352Z,30
2017-10-31T14:32:52.088Z,30
2017-10-31T14:34:01.779Z,25
2017-10-31T14:35:12.211Z,25
2017-10-31T14:36:21.596Z,25
2017-10-31T14:37:32.062Z,20
2017-10-31T14:38:42.083Z,20
2017-10-31T14:39:51.856Z,20
2017-10-31T14:41:01.651Z,20
2017-10-31T14:42:11.363Z,20
2017-10-31T14:43:21.474Z,20
2017-10-31T14:44:31.264Z,20
2017-10-31T14:45:41.621Z,20
2017-10-31T14:46:51.732Z,20
2017-10-31T14:48:01.208Z,20
2017-10-31T14:49:11.222Z,15
2017-10-31T14:50:21.305Z,15
2017-10-31T14:51:31.811Z,15
2017-10-31T14:52:42.217Z,10
2017-10-31T14:53:51.902Z,15
2017-10-31T14:55:01.761Z,15
2017-10-31T14:56:11.879Z,15
2017-10-31T14:57:21.630Z,20
2017-10-31T14:58:31.648Z,20
2017-10-31T14:59:41.468Z,20
2017-10-31T15:00:51.248Z,20
2017-10-31T15:02:00.590Z,20
2017-10-31T15:03:10.367Z,20
2017-10-31T15:04:20.120Z,20
2017-10-31T15:05:29.804Z,20
2017-10-31T15:06:39.834Z,20
2017-10-31T15:07:49.842Z,20
2017-10-31T15:09:00.184Z,20
2017-10-31T15:10:10.241Z,20
2017-10-31T15:11:19.933Z,20
2017-10-31T15:12:30.002Z,15
2017-10-31T15:13:39.373Z,15
2017-10-31T15:14:49.079Z,15
2017-10-31T15:15:59.108Z,15
2017-10-31T15:17:08.825Z,15
2017-10-31T15:18:18.840Z,10
2017-10-31T15:19:28.204Z,10
2017-10-31T15:20:37.890Z,10
2017-10-31T15:21:46.898Z,10
2017-10-31T15:22:55.916Z,10
2017-10-31T15:24:05.372Z,10
2017-10-31T15:25:15.443Z,10
2017-10-31T15:26:24.823Z,10
2017-10-31T15:27:34.858Z,5
2017-10-31T15:28:44.576Z,5
2017-10-31T15:29:54.589Z,5
2017-10-31T15:31:04.615Z,5
2017-10-31T15:32:14.626Z,5
2017-10-31T15:33:24.690Z,0
2017-10-31T15:34:34.714Z,0
2017-10-31T15:35:44.053Z,0
2017-10-31T15:36:53.397Z,0
2017-10-31T15:38:02.737Z,0
2017-10-31T15:39:13.118Z,0
2017-10-31T15:40:22.875Z,0
2017-10-31T15:41:32.881Z,0
2017-10-31T15:42:42.602Z,0
2017-10-31T15:43:52.625Z,0
2017-10-31T15:45:01.984Z,0
2017-10-31T15:46:12.017Z,0
2017-10-31T15:47:22.023Z,0
2017-10-31T15:48:32.039Z,0
2017-10-31T15:49:42.051Z,0
2017-10-31T15:50:52.065Z,0
2017-10-31T15:52:01.772Z,0
2017-10-31T15:53:11.510Z,0
2017-10-31T15:54:20.869Z,0
2017-10-31T15:55:31.208Z,0
2017-10-31T15:56:41.299Z,0
2017-10-31T15:57:50.981Z,0
2017-10-31T15:59:00.995Z,0
2017-10-31T16:00:10.406Z,0
2017-10-31T16:01:20.170Z,0
2017-10-31T16:02:29.615Z,0
2017-10-31T16:03:39.969Z,0
2017-10-31T16:04:50.129Z,0
2017-10-31T16:05:59.952Z,0
2017-10-31T16:07:09.005Z,0
2017-10-31T16:08:18.731Z,0
2017-10-31T16:09:28.489Z,0
2017-10-31T16:10:38.632Z,0
2017-10-31T16:11:48.305Z,0
2017-10-31T16:12:58.458Z,0
2017-10-31T16:14:08.233Z,0
2017-10-31T16:15:18.340Z,0
2017-10-31T16:16:28.678Z,0
2017-10-31T16:17:38.792Z,0
2017-10-31T16:18:48.861Z,0
2017-10-31T16:19:58.659Z,0
2017-10-31T16:21:08.006Z,0
2017-10-31T16:22:17.798Z,0
2017-10-31T16:23:27.862Z,0
2017-10-31T16:24:37.868Z,0
2017-10-31T16:25:47.649Z,0
2017-10-31T16:26:57.452Z,0
2017-10-31T16:28:07.122Z,0
2017-10-31T16:29:16.222Z,0
2017-10-31T16:30:25.591Z,0
2017-10-31T16:31:35.412Z,0
2017-10-31T16:32:44.794Z,0
2017-10-31T16:33:54.803Z,0
2017-10-31T16:35:05.290Z,0
2017-10-31T16:36:15.395Z,0
2017-10-31T16:37:25.141Z,0
2017-10-31T16:38:35.532Z,0
2017-10-31T16:39:45.607Z,0
2017-10-31T16:40:55.690Z,0
2017-10-31T16:42:04.741Z,0
2017-10-31T16:43:15.105Z,0
2017-10-31T16:44:24.851Z,0
2017-10-31T16:45:35.263Z,0
2017-10-31T16:46:45.617Z,0
2017-10-31T16:47:55.638Z,0
2017-10-31T16:49:06.122Z,0
2017-10-31T16:50:15.568Z,0
2017-10-31T16:51:25.669Z,0
2017-10-31T16:52:35.005Z,0
2017-10-31T16:53:44.770Z,0
2017-10-31T16:54:54.205Z,0